Time;durP1;ratioP1;P1;durP2;ratioP2;P2;SDS_P1;SDS_P2;PMS_P1;PMS_P2;Temp;Humidity;BMP_temperature;BMP_pressure;BME280_temperature;BME280_humidity;BME280_pressure;Samples;Min_cycle;Max_cycle;Signal;HPM_P1;HPM_P2
2024/04/06 00:00:33;;;;;;;2.55;1.00;;;;;;;15.46;48.19;100897.03;4955882;28;20442;-76
2024/04/06 00:03:00;;;;;;;2.05;1.05;;;;;;;15.43;48.63;100892.72;4951384;28;20042;-77
2024/04/06 00:05:26;;;;;;;2.30;1.10;;;;;;;15.43;48.73;100889.09;4975573;28;20249;-76
2024/04/06 00:07:53;;;;;;;1.45;0.90;;;;;;;15.43;48.77;100883.56;4962994;28;20050;-76
2024/04/06 00:10:19;;;;;;;2.28;1.20;;;;;;;15.42;48.81;100890.16;4957405;28;20054;-77
2024/04/06 00:12:46;;;;;;;2.92;1.30;;;;;;;15.41;48.28;100878.25;4966964;28;20116;-77
2024/04/06 00:15:12;;;;;;;1.40;1.02;;;;;;;15.41;48.25;100874.63;4955218;28;20058;-77
2024/04/06 00:17:40;;;;;;;2.83;1.20;;;;;;;15.42;48.61;100885.47;4956044;28;20042;-78
2024/04/06 00:20:07;;;;;;;2.80;1.15;;;;;;;15.40;48.65;100884.78;4956182;28;20525;-77
2024/04/06 00:22:34;;;;;;;2.10;1.00;;;;;;;15.39;48.77;100877.53;4955206;28;20422;-77
2024/04/06 00:25:00;;;;;;;1.92;1.02;;;;;;;15.40;48.90;100879.28;4951246;28;20035;-76
2024/04/06 00:27:28;;;;;;;1.90;1.20;;;;;;;15.38;48.63;100873.03;4955681;28;20093;-77
2024/04/06 00:29:54;;;;;;;3.28;1.33;;;;;;;15.38;48.63;100877.69;4971504;28;20366;-77
2024/04/06 00:32:21;;;;;;;2.10;1.00;;;;;;;15.37;48.52;100870.44;4955847;28;20053;-77
2024/04/06 00:34:48;;;;;;;1.88;1.00;;;;;;;15.37;49.02;100879.59;4964949;28;20048;-77
2024/04/06 00:37:15;;;;;;;1.73;0.88;;;;;;;15.35;48.81;100869.75;4972134;28;20473;-77
2024/04/06 00:39:41;;;;;;;2.20;1.00;;;;;;;15.34;48.90;100870.81;4972542;28;20100;-77
2024/04/06 00:42:09;;;;;;;2.38;1.10;;;;;;;15.34;48.65;100868.03;4970337;28;20034;-77
2024/04/06 00:44:35;;;;;;;2.13;0.90;;;;;;;15.33;48.67;100871.78;4965770;28;20376;-79
2024/04/06 00:47:03;;;;;;;2.50;1.23;;;;;;;15.32;48.86;100870.94;4971781;28;20042;-77
2024/04/06 00:49:29;;;;;;;2.00;1.17;;;;;;;15.31;48.90;100868.31;4972373;28;20043;-77
2024/04/06 00:51:58;;;;;;;2.38;1.10;;;;;;;15.31;48.74;100876.59;4971760;28;20508;-78
2024/04/06 00:54:24;;;;;;;2.20;1.05;;;;;;;15.29;48.84;100873.13;4980696;28;20054;-79
2024/04/06 00:56:53;;;;;;;3.08;1.10;;;;;;;15.27;48.86;100870.53;4958435;28;20046;-77
2024/04/06 00:59:19;;;;;;;2.20;1.00;;;;;;;15.29;49.01;100881.41;4971648;28;20117;-77
2024/04/06 01:01:48;;;;;;;2.72;1.10;;;;;;;15.27;49.07;100876.06;4952547;28;20061;-78
2024/04/06 01:04:14;;;;;;;1.60;0.98;;;;;;;15.27;49.37;100884.31;4957603;28;20061;-77
2024/04/06 01:06:41;;;;;;;2.78;1.20;;;;;;;15.27;49.15;100884.31;4971869;28;20088;-77
2024/04/06 01:09:09;;;;;;;2.75;1.27;;;;;;;15.28;48.98;100886.06;4955455;28;20499;-77
2024/04/06 01:11:37;;;;;;;2.40;1.02;;;;;;;15.28;49.58;100890.69;4970477;28;20458;-78
2024/04/06 01:14:03;;;;;;;2.05;1.20;;;;;;;15.26;49.16;100885.34;4961378;28;20537;-77
2024/04/06 01:16:30;;;;;;;2.95;1.30;;;;;;;15.26;49.21;100882.59;4971952;28;20042;-76
2024/04/06 01:18:57;;;;;;;2.38;1.20;;;;;;;15.26;49.36;100890.84;4975351;28;20081;-78
2024/04/06 01:21:26;;;;;;;3.15;1.20;;;;;;;15.26;49.21;100884.50;4970986;28;20046;-77
2024/04/06 01:23:53;;;;;;;2.55;1.10;;;;;;;15.27;49.40;100883.44;4967283;28;20034;-78
2024/04/06 01:26:22;;;;;;;1.85;1.02;;;;;;;15.28;49.16;100885.19;4971427;28;20050;-77
2024/04/06 01:28:48;;;;;;;2.67;1.33;;;;;;;15.25;49.38;100885.53;4971006;28;20046;-77
2024/04/06 01:31:15;;;;;;;2.60;1.08;;;;;;;15.26;49.08;100892.78;4970742;28;20046;-77
2024/04/06 01:33:41;;;;;;;3.42;1.20;;;;;;;15.25;49.41;100885.53;4970339;28;20457;-78
2024/04/06 01:36:08;;;;;;;2.20;1.15;;;;;;;15.25;49.05;100882.78;4971870;28;20441;-76
2024/04/06 01:38:35;;;;;;;2.25;1.20;;;;;;;15.23;49.36;100891.22;4970676;28;20710;-77
2024/04/06 01:41:02;;;;;;;2.40;1.10;;;;;;;15.24;49.38;100884.66;4965202;28;20043;-77
2024/04/06 01:43:29;;;;;;;2.28;1.30;;;;;;;15.26;49.35;100901.06;4970295;28;20044;-77
2024/04/06 01:45:56;;;;;;;2.75;1.35;;;;;;;15.24;49.63;100900.34;4971279;28;20582;-77
2024/04/06 01:48:22;;;;;;;2.20;1.25;;;;;;;15.23;49.25;100893.97;4971409;28;20039;-78
2024/04/06 01:50:49;;;;;;;2.65;1.50;;;;;;;15.22;49.37;100892.22;4977415;28;20046;-76
2024/04/06 01:53:15;;;;;;;3.55;1.30;;;;;;;15.22;49.77;100897.75;4970911;28;20437;-78
2024/04/06 01:55:42;;;;;;;4.63;1.77;;;;;;;15.21;49.69;100897.91;4976912;28;20061;-77
2024/04/06 01:58:08;;;;;;;3.00;1.60;;;;;;;15.20;49.82;100893.41;4975154;28;20405;-77
2024/04/06 02:00:36;;;;;;;2.25;1.27;;;;;;;15.20;49.60;100902.56;4963716;28;20140;-77
2024/04/06 02:03:04;;;;;;;3.35;1.42;;;;;;;15.19;49.53;100894.44;4991380;28;20095;-77
2024/04/06 02:05:31;;;;;;;3.33;1.40;;;;;;;15.17;49.72;100889.13;4975071;28;20104;-78
2024/04/06 02:07:57;;;;;;;2.95;1.50;;;;;;;15.16;49.57;100886.53;4977490;28;20042;-77
2024/04/06 02:10:24;;;;;;;2.25;1.30;;;;;;;15.13;49.42;100891.31;4994922;28;20085;-77
2024/04/06 02:12:50;;;;;;;3.20;1.70;;;;;;;15.12;49.89;100889.59;4990686;28;20038;-76
2024/04/06 02:15:17;;;;;;;3.05;1.65;;;;;;;15.09;49.27;100887.16;4978465;28;20109;-78
2024/04/06 02:17:45;;;;;;;4.63;1.70;;;;;;;15.10;49.82;100882.50;4976833;28;20371;-76
2024/04/06 02:20:12;;;;;;;2.78;1.58;;;;;;;15.06;49.72;100875.59;4993519;28;20046;-77
2024/04/06 02:22:38;;;;;;;2.80;1.63;;;;;;;15.04;49.77;100880.41;4975128;28;20086;-79
2024/04/06 02:25:06;;;;;;;3.60;1.65;;;;;;;15.03;49.39;100878.66;4993584;28;20505;-78
2024/04/06 02:27:32;;;;;;;3.03;1.60;;;;;;;15.01;49.59;100878.81;4993819;28;20049;-77
2024/04/06 02:29:59;;;;;;;2.60;1.30;;;;;;;15.00;49.57;100884.53;4993154;28;20038;-76
2024/04/06 02:32:26;;;;;;;3.35;1.40;;;;;;;14.99;49.59;100880.03;4991705;28;20053;-78
2024/04/06 02:34:54;;;;;;;4.93;1.85;;;;;;;14.99;49.77;100875.41;4986540;28;20110;-77
2024/04/06 02:37:20;;;;;;;2.92;1.50;;;;;;;14.95;49.49;100865.72;4993498;28;20049;-77
2024/04/06 02:39:47;;;;;;;2.45;1.25;;;;;;;14.94;49.51;100863.09;4992760;28;20037;-77
2024/04/06 02:42:13;;;;;;;2.88;1.60;;;;;;;14.91;49.52;100869.84;4992720;28;20045;-78
2024/04/06 02:44:40;;;;;;;4.10;1.58;;;;;;;14.89;49.71;100869.13;4990665;28;20049;-78
2024/04/06 02:47:06;;;;;;;2.05;1.40;;;;;;;14.87;49.45;100873.06;4992647;28;20041;-79
2024/04/06 02:49:33;;;;;;;2.70;1.35;;;;;;;14.84;49.52;100871.50;4992116;28;20061;-77
2024/04/06 02:52:01;;;;;;;4.03;1.50;;;;;;;14.81;49.94;100855.28;4973967;28;20076;-76
2024/04/06 02:54:28;;;;;;;3.45;1.55;;;;;;;14.76;49.35;100850.25;4991554;28;20046;-77
2024/04/06 02:56:54;;;;;;;3.13;1.42;;;;;;;14.74;49.30;100854.22;4993583;28;20046;-78
2024/04/06 02:59:21;;;;;;;4.00;1.50;;;;;;;14.70;49.38;100847.28;4976547;28;20050;-78
2024/04/06 03:01:47;;;;;;;4.40;1.67;;;;;;;14.68;49.67;100843.84;4959912;28;20050;-77
2024/04/06 03:04:14;;;;;;;3.50;1.48;;;;;;;14.64;50.05;100829.53;4955120;28;20092;-79
2024/04/06 03:06:40;;;;;;;3.20;1.60;;;;;;;14.63;49.81;100821.41;4956910;28;20038;-76
2024/04/06 03:09:08;;;;;;;3.38;1.30;;;;;;;14.62;50.07;100816.94;4973480;28;20049;-78
2024/04/06 03:11:34;;;;;;;2.97;1.52;;;;;;;14.58;49.87;100813.66;4974836;28;20034;-79
2024/04/06 03:14:01;;;;;;;3.15;1.63;;;;;;;14.56;49.64;100818.44;4972136;28;20038;-77
2024/04/06 03:16:27;;;;;;;3.53;1.88;;;;;;;14.56;49.73;100814.84;4962090;28;20417;-77
2024/04/06 03:18:54;;;;;;;2.20;1.20;;;;;;;14.54;49.87;100812.22;4956494;28;20031;-77
2024/04/06 03:21:21;;;;;;;2.28;1.27;;;;;;;14.53;50.19;100813.25;4957235;28;20050;-77
2024/04/06 03:23:48;;;;;;;3.50;1.50;;;;;;;14.50;49.84;100799.81;4971647;28;20034;-78
2024/04/06 03:26:15;;;;;;;2.78;1.30;;;;;;;14.52;50.06;100807.94;4959412;28;20054;-78
2024/04/06 03:28:42;;;;;;;3.35;1.20;;;;;;;14.49;49.64;100811.00;4972716;28;20599;-77
2024/04/06 03:31:08;;;;;;;2.65;1.33;;;;;;;14.49;49.61;100813.75;4968760;28;20042;-79
2024/04/06 03:33:35;;;;;;;1.83;1.20;;;;;;;14.48;49.88;100825.78;4954874;28;20442;-77
2024/04/06 03:36:01;;;;;;;2.40;1.23;;;;;;;14.46;49.83;100828.66;4970033;28;20081;-77
2024/04/06 03:38:28;;;;;;;2.72;1.10;;;;;;;14.46;50.34;100847.06;4973134;28;20046;-77
2024/04/06 03:40:55;;;;;;;3.33;1.58;;;;;;;14.46;50.09;100858.09;4972967;28;20041;-78
2024/04/06 03:43:22;;;;;;;2.60;1.45;;;;;;;14.48;49.77;100859.69;4974353;28;20035;-77
2024/04/06 03:45:50;;;;;;;2.17;1.30;;;;;;;14.48;50.21;100864.34;4967247;28;20363;-77
2024/04/06 03:48:16;;;;;;;2.30;1.30;;;;;;;14.47;50.34;100866.22;4972348;28;20081;-77
2024/04/06 03:50:43;;;;;;;2.78;1.25;;;;;;;14.48;50.21;100869.84;4967713;28;20047;-78
2024/04/06 03:53:10;;;;;;;2.30;1.10;;;;;;;14.48;50.30;100873.47;4969161;28;20034;-78
2024/04/06 03:55:37;;;;;;;2.83;1.35;;;;;;;14.49;50.19;100863.31;4969011;28;20116;-78
2024/04/06 03:58:03;;;;;;;3.20;1.30;;;;;;;14.50;49.91;100856.78;4949722;28;20529;-79
2024/04/06 04:00:31;;;;;;;2.03;1.20;;;;;;;14.51;49.70;100851.13;4960077;28;20497;-77
2024/04/06 04:02:57;;;;;;;2.75;1.48;;;;;;;14.46;50.08;100855.34;4974145;28;20049;-77
2024/04/06 04:05:24;;;;;;;4.57;1.80;;;;;;;14.47;49.75;100846.94;4970963;28;20389;-77
2024/04/06 04:07:50;;;;;;;3.40;1.27;;;;;;;14.49;50.19;100850.41;4986745;28;20034;-77
2024/04/06 04:10:17;;;;;;;3.53;1.40;;;;;;;14.49;49.83;100844.03;5008437;28;20390;-77
2024/04/06 04:12:43;;;;;;;3.42;1.30;;;;;;;14.49;50.17;100852.31;4989315;28;20038;-77
2024/04/06 04:15:10;;;;;;;2.70;1.38;;;;;;;14.49;50.15;100844.03;4973650;28;20452;-78
2024/04/06 04:17:38;;;;;;;3.35;1.23;;;;;;;14.48;49.85;100832.16;5014248;28;20049;-77
2024/04/06 04:20:05;;;;;;;2.25;1.30;;;;;;;14.45;49.68;100832.44;4973744;28;20045;-78
2024/04/06 04:22:31;;;;;;;3.35;1.40;;;;;;;14.45;49.64;100831.56;4991260;28;20046;-77
2024/04/06 04:24:58;;;;;;;3.42;1.35;;;;;;;14.43;49.79;100830.88;4990036;28;20073;-78
2024/04/06 04:27:24;;;;;;;3.50;1.30;;;;;;;14.42;49.44;100831.91;4973791;28;20034;-80
2024/04/06 04:29:52;;;;;;;2.20;1.25;;;;;;;14.40;49.49;100829.31;4974403;28;20551;-78
2024/04/06 04:32:18;;;;;;;2.95;1.20;;;;;;;14.39;49.53;100822.94;4990394;28;20092;-78
2024/04/06 04:34:46;;;;;;;3.30;1.35;;;;;;;14.39;49.86;100820.19;4973118;28;20501;-79
2024/04/06 04:37:12;;;;;;;2.28;1.30;;;;;;;14.37;49.97;100821.34;4991745;28;20046;-76
2024/04/06 04:39:39;;;;;;;2.45;1.42;;;;;;;14.37;49.70;100826.88;4988601;28;20100;-78
2024/04/06 04:42:05;;;;;;;2.10;1.30;;;;;;;14.37;49.59;100827.72;4973709;28;20088;-78
2024/04/06 04:44:32;;;;;;;2.47;1.40;;;;;;;14.36;49.56;100828.75;4984925;28;20053;-77
2024/04/06 04:46:58;;;;;;;1.88;1.20;;;;;;;14.34;50.00;100825.31;4987056;28;20104;-76
2024/04/06 04:49:25;;;;;;;2.05;1.15;;;;;;;14.33;49.71;100812.56;4990631;28;20037;-77
2024/04/06 04:51:53;;;;;;;2.65;1.30;;;;;;;14.35;49.89;100820.69;4988360;28;20038;-78
2024/04/06 04:54:21;;;;;;;2.08;1.17;;;;;;;14.31;49.65;100819.25;4987032;28;20536;-77
2024/04/06 04:56:47;;;;;;;2.75;1.40;;;;;;;14.29;49.55;100816.66;4989999;28;20050;-78
2024/04/06 04:59:14;;;;;;;1.92;1.20;;;;;;;14.29;49.38;100824.03;4988543;28;20048;-77
2024/04/06 05:01:40;;;;;;;3.10;1.38;;;;;;;14.27;49.43;100829.72;4935951;28;1092391;-77
2024/04/06 05:04:07;;;;;;;2.30;1.13;;;;;;;14.26;49.90;100828.00;4983462;28;20082;-80
2024/04/06 05:06:33;;;;;;;2.55;1.40;;;;;;;14.23;49.46;100820.06;4983185;28;20041;-79
2024/04/06 05:09:01;;;;;;;2.60;1.45;;;;;;;14.25;49.85;100817.16;4987808;28;20038;-78
2024/04/06 05:11:27;;;;;;;2.65;1.25;;;;;;;14.21;49.81;100818.47;4972270;28;20041;-77
2024/04/06 05:13:54;;;;;;;2.72;1.45;;;;;;;14.19;49.37;100815.03;4989638;28;20116;-78
2024/04/06 05:16:20;;;;;;;2.85;1.30;;;;;;;14.19;49.87;100821.38;4991865;28;20408;-77
2024/04/06 05:18:47;;;;;;;2.05;1.15;;;;;;;14.18;49.69;100819.69;4990204;28;20045;-77
2024/04/06 05:21:13;;;;;;;2.45;1.60;;;;;;;14.18;49.75;100818.81;4985757;28;20038;-77
2024/04/06 05:23:40;;;;;;;2.97;1.35;;;;;;;14.17;49.57;100819.81;4986278;28;20457;-77
2024/04/06 05:26:08;;;;;;;4.13;1.40;;;;;;;14.19;49.49;100804.88;4985631;28;20050;-78
2024/04/06 05:28:34;;;;;;;3.67;1.48;;;;;;;14.17;49.75;100795.94;4988836;28;20057;-77
2024/04/06 05:31:01;;;;;;;2.03;1.30;;;;;;;14.17;49.63;100804.19;4990585;28;20037;-78
2024/04/06 05:33:27;;;;;;;2.03;1.20;;;;;;;14.18;50.06;100814.16;4992897;28;20041;-79
2024/04/06 05:35:54;;;;;;;2.92;1.30;;;;;;;14.19;50.12;100806.78;4993852;28;20518;-77
2024/04/06 05:38:21;;;;;;;2.75;1.17;;;;;;;14.20;49.93;100816.75;4992912;28;20050;-79
2024/04/06 05:40:48;;;;;;;3.00;1.50;;;;;;;14.21;50.05;100808.31;4992401;28;20042;-77
2024/04/06 05:43:15;;;;;;;2.58;1.33;;;;;;;14.24;49.65;100819.03;4994874;28;20049;-78
2024/04/06 05:45:43;;;;;;;2.78;1.20;;;;;;;14.24;49.70;100808.03;4992223;28;20061;-77
2024/04/06 05:48:09;;;;;;;3.35;1.40;;;;;;;14.25;50.06;100797.88;4978892;28;20034;-77
2024/04/06 05:50:37;;;;;;;3.08;1.50;;;;;;;14.27;50.05;100791.16;4975543;28;21223;-78
2024/04/06 05:53:04;;;;;;;2.28;1.40;;;;;;;14.30;49.63;100790.84;4993825;28;20453;-77
2024/04/06 05:55:31;;;;;;;2.58;1.35;;;;;;;14.32;50.14;100785.19;4994967;28;20049;-77
2024/04/06 05:57:57;;;;;;;2.45;1.40;;;;;;;14.35;50.22;100784.88;4973711;28;20045;-78
2024/04/06 06:00:26;;;;;;;2.40;1.35;;;;;;;14.40;49.75;100788.00;4992266;28;20457;-78
2024/04/06 06:02:53;;;;;;;2.42;1.33;;;;;;;14.41;49.77;100795.25;4990526;28;20084;-77
2024/04/06 06:05:20;;;;;;;2.90;1.70;;;;;;;14.47;49.79;100804.75;4993003;28;20038;-78
2024/04/06 06:07:46;;;;;;;2.03;1.27;;;;;;;14.49;49.56;100805.50;4991213;28;20413;-77
2024/04/06 06:10:13;;;;;;;3.80;1.55;;;;;;;14.53;49.91;100802.22;4994076;28;20041;-76
2024/04/06 06:12:39;;;;;;;2.78;1.40;;;;;;;14.58;49.65;100804.53;4992415;28;20037;-77
2024/04/06 06:15:07;;;;;;;2.90;1.40;;;;;;;14.60;49.89;100806.06;4992898;28;20073;-78
2024/04/06 06:17:34;;;;;;;3.58;1.60;;;;;;;14.65;49.74;100800.09;4990898;28;20084;-77
2024/04/06 06:20:02;;;;;;;4.38;1.60;;;;;;;14.67;49.38;100804.41;4992710;28;20524;-78
2024/04/06 06:22:29;;;;;;;2.83;1.63;;;;;;;14.71;49.37;100804.94;4992581;28;20417;-77
2024/04/06 06:24:57;;;;;;;2.42;1.27;;;;;;;14.76;49.32;100805.34;5008091;28;20037;-77
2024/04/06 06:27:23;;;;;;;5.10;1.65;;;;;;;14.82;49.55;100812.06;4992378;28;20046;-77
2024/04/06 06:29:50;;;;;;;1.98;1.38;;;;;;;14.87;49.81;100816.06;4993049;28;20030;-78
2024/04/06 06:32:16;;;;;;;3.55;1.60;;;;;;;14.93;49.60;100822.81;4995274;28;20041;-78
2024/04/06 06:34:45;;;;;;;2.75;1.40;;;;;;;15.00;49.18;100822.00;4975682;28;20092;-77
2024/04/06 06:37:12;;;;;;;2.83;1.55;;;;;;;15.05;49.47;100827.88;4974240;28;20050;-77
2024/04/06 06:39:39;;;;;;;2.38;1.20;;;;;;;15.13;48.90;100821.53;4992660;28;20514;-77
2024/04/06 06:42:08;;;;;;;2.65;1.52;;;;;;;15.21;48.70;100821.56;4974349;28;20061;-78
2024/04/06 06:44:36;;;;;;;3.70;1.70;;;;;;;15.22;49.00;100815.03;4989922;28;20042;-77
2024/04/06 06:47:02;;;;;;;2.08;1.25;;;;;;;15.28;48.87;100811.59;4991406;28;20045;-76
2024/04/06 06:49:29;;;;;;;2.65;1.40;;;;;;;15.34;48.21;100812.88;4992609;28;20421;-77
2024/04/06 06:51:56;;;;;;;3.65;1.60;;;;;;;15.38;48.06;100823.41;4992437;28;20045;-77
2024/04/06 06:54:23;;;;;;;3.05;1.63;;;;;;;15.39;48.26;100803.06;4991066;28;20117;-77
2024/04/06 06:56:49;;;;;;;2.45;1.38;;;;;;;15.41;48.00;100800.16;4976014;28;20052;-77
2024/04/06 06:59:16;;;;;;;3.83;1.20;;;;;;;15.47;48.58;100799.47;4975773;28;20045;-78
2024/04/06 07:01:42;;;;;;;3.40;1.48;;;;;;;15.52;48.93;100797.94;4992356;28;20498;-78
2024/04/06 07:04:09;;;;;;;3.92;1.30;;;;;;;15.60;49.15;100783.28;4973809;28;20297;-78
2024/04/06 07:06:35;;;;;;;2.70;1.52;;;;;;;15.68;48.96;100791.59;4992433;28;20046;-77
2024/04/06 07:09:04;;;;;;;2.70;1.50;;;;;;;15.81;49.15;100793.88;4992359;28;20069;-78
2024/04/06 07:11:30;;;;;;;3.13;1.50;;;;;;;15.94;49.08;100788.69;4990970;28;20046;-79
2024/04/06 07:13:57;;;;;;;3.88;1.58;;;;;;;16.06;49.35;100797.53;4974221;28;20038;-78
2024/04/06 07:16:25;;;;;;;3.70;1.30;;;;;;;16.22;49.31;100803.09;4971898;28;20046;-77
2024/04/06 07:18:52;;;;;;;3.38;1.48;;;;;;;16.40;49.30;100808.44;4994056;28;20042;-78
2024/04/06 07:21:18;;;;;;;2.58;1.45;;;;;;;16.56;49.47;100817.56;4976642;28;20056;-80
2024/04/06 07:23:45;;;;;;;2.97;1.60;;;;;;;16.77;48.71;100821.66;4976772;28;20046;-79
2024/04/06 07:26:13;;;;;;;2.60;1.45;;;;;;;16.97;48.55;100815.63;4995260;28;20045;-79
2024/04/06 07:28:42;;;;;;;2.60;1.40;;;;;;;17.15;48.36;100806.22;4995590;28;20046;-79
2024/04/06 07:31:08;;;;;;;3.83;1.48;;;;;;;17.31;48.47;100798.72;4998370;28;20517;-79
2024/04/06 07:33:35;;;;;;;4.32;1.70;;;;;;;17.49;47.81;100789.28;4995413;28;20611;-77
2024/04/06 07:36:01;;;;;;;2.30;1.40;;;;;;;17.63;47.31;100796.81;4981789;28;20037;-78
2024/04/06 07:38:29;;;;;;;3.28;1.60;;;;;;;17.80;46.83;100787.41;4990372;28;20497;-79
2024/04/06 07:40:58;;;;;;;2.97;1.30;;;;;;;17.97;45.32;100807.53;4978925;28;20092;-75
2024/04/06 07:43:26;;;;;;;2.20;1.60;;;;;;;18.10;45.56;100789.25;4992817;28;20077;-73
2024/04/06 07:45:52;;;;;;;3.28;1.30;;;;;;;18.19;44.88;100787.28;4987889;28;20038;-64
2024/04/06 07:48:19;;;;;;;3.15;1.58;;;;;;;18.27;44.22;100789.13;4992254;28;20058;-62
2024/04/06 07:50:45;;;;;;;4.20;1.30;;;;;;;18.35;43.75;100784.38;4991782;28;20243;-65
2024/04/06 07:53:12;;;;;;;3.42;1.50;;;;;;;18.41;43.19;100780.84;4991482;28;20501;-64
2024/04/06 07:55:39;;;;;;;2.90;1.40;;;;;;;18.46;42.87;100775.63;4973707;28;20100;-65
2024/04/06 07:58:06;;;;;;;2.50;1.33;;;;;;;18.50;42.60;100778.88;4992549;28;20033;-65
2024/04/06 08:00:34;;;;;;;3.10;1.30;;;;;;;18.54;42.14;100763.63;4999080;23;20065;-65
2024/04/06 08:03:01;;;;;;;1.65;1.00;;;;;;;18.54;42.18;100762.75;5017777;28;20503;-66
2024/04/06 08:05:27;;;;;;;2.75;1.30;;;;;;;18.54;42.07;100766.38;5000721;28;20041;-66
2024/04/06 08:07:54;;;;;;;2.72;1.45;;;;;;;18.56;42.06;100768.94;5006984;28;20468;-66
2024/04/06 08:10:21;;;;;;;3.50;1.40;;;;;;;18.57;42.36;100767.91;4989538;28;20044;-65
2024/04/06 08:12:49;;;;;;;2.72;1.27;;;;;;;18.58;42.17;100766.84;4990147;28;20512;-65
2024/04/06 08:15:18;;;;;;;2.80;1.30;;;;;;;18.58;41.75;100778.81;4990765;28;20129;-65
2024/04/06 08:17:49;;;;;;;3.00;1.50;;;;;;;18.62;41.13;100771.84;4988318;28;20045;-65
2024/04/06 08:20:16;;;;;;;3.22;1.40;;;;;;;18.58;41.31;100776.03;4985665;28;20045;-65
2024/04/06 08:22:43;;;;;;;4.30;1.50;;;;;;;18.60;41.31;100768.41;4990473;28;20053;-66
2024/04/06 08:25:10;;;;;;;3.63;1.40;;;;;;;18.62;40.89;100773.75;4995255;28;20405;-66
2024/04/06 08:27:37;;;;;;;3.30;1.45;;;;;;;18.64;41.17;100766.94;4991292;28;20109;-65
2024/04/06 08:30:06;;;;;;;3.67;1.38;;;;;;;18.67;40.72;100762.94;4992043;28;20100;-65
2024/04/06 08:32:36;;;;;;;2.13;1.40;;;;;;;18.69;40.59;100763.63;5006170;28;20520;-66
2024/04/06 08:35:03;;;;;;;2.50;1.30;;;;;;;18.71;40.65;100778.16;4997520;28;20037;-78
2024/04/06 08:37:30;;;;;;;3.47;1.35;;;;;;;18.72;40.33;100764.09;5000966;28;20045;-78
2024/04/06 08:39:56;;;;;;;2.20;1.40;;;;;;;18.74;40.00;100758.34;5000904;28;20045;-78
2024/04/06 08:42:24;;;;;;;3.55;1.50;;;;;;;18.77;40.01;100761.63;4992408;28;20362;-79
2024/04/06 08:44:50;;;;;;;2.88;1.35;;;;;;;18.79;39.99;100751.22;4998681;28;20042;-67
2024/04/06 08:47:20;;;;;;;2.78;1.20;;;;;;;18.82;40.04;100747.19;4992071;28;20051;-78
2024/04/06 08:49:47;;;;;;;2.42;1.23;;;;;;;18.84;39.92;100745.09;4973792;28;20508;-78
2024/04/06 08:52:16;;;;;;;3.55;1.27;;;;;;;18.89;39.82;100749.00;4979179;28;20046;-77
2024/04/06 08:54:42;;;;;;;3.20;1.40;;;;;;;18.87;39.27;100741.94;4991929;28;20046;-77
2024/04/06 08:57:09;;;;;;;4.03;1.30;;;;;;;18.90;39.21;100747.94;4986537;28;20527;-78
2024/04/06 08:59:35;;;;;;;2.58;1.40;;;;;;;18.94;39.10;100756.75;4987151;28;20049;-77
2024/04/06 09:02:03;;;;;;;3.38;1.30;;;;;;;18.98;38.90;100746.13;5010484;28;20069;-77
2024/04/06 09:04:29;;;;;;;2.92;1.30;;;;;;;19.00;39.09;100744.03;4995800;28;20038;-77
2024/04/06 09:06:56;;;;;;;2.40;1.25;;;;;;;19.04;38.85;100743.47;4991267;28;20096;-78
2024/04/06 09:09:23;;;;;;;2.60;1.40;;;;;;;19.10;38.64;100739.91;4987910;28;20057;-77
2024/04/06 09:11:51;;;;;;;2.58;1.25;;;;;;;19.12;38.78;100743.34;4972436;28;20305;-78
2024/04/06 09:14:16;;;;;;;3.10;1.30;;;;;;;19.16;39.16;100747.44;4975579;28;20057;-77
2024/04/06 09:16:44;;;;;;;2.60;1.27;;;;;;;19.22;38.67;100740.28;4988138;28;20037;-77
2024/04/06 09:19:10;;;;;;;2.60;1.33;;;;;;;19.26;38.33;100736.09;4983865;28;20045;-77
2024/04/06 09:21:37;;;;;;;1.88;0.93;;;;;;;19.33;38.33;100733.38;4981402;28;20061;-77
2024/04/06 09:24:04;;;;;;;2.92;1.30;;;;;;;19.39;37.98;100732.59;4972081;28;20042;-77
2024/04/06 09:26:33;;;;;;;3.35;1.23;;;;;;;19.45;37.55;100727.16;4986131;28;20417;-78
2024/04/06 09:29:00;;;;;;;3.90;1.40;;;;;;;19.48;37.88;100715.63;4987092;28;20109;-77
2024/04/06 09:31:28;;;;;;;2.67;1.38;;;;;;;19.54;37.86;100717.63;4978720;28;20049;-77
2024/04/06 09:33:55;;;;;;;3.42;1.20;;;;;;;19.60;38.10;100719.63;4976484;28;20430;-77
2024/04/06 09:36:22;;;;;;;1.60;0.90;;;;;;;19.67;37.72;100727.16;4986278;28;20363;-77
2024/04/06 09:38:49;;;;;;;2.97;1.25;;;;;;;19.75;37.65;100710.38;4973902;28;20525;-77
2024/04/06 09:41:17;;;;;;;3.35;1.30;;;;;;;19.81;37.57;100701.25;4980291;28;20321;-77
2024/04/06 09:43:45;;;;;;;3.45;1.30;;;;;;;19.90;37.11;100703.69;4987876;28;20042;-76
2024/04/06 09:46:13;;;;;;;2.03;1.00;;;;;;;19.95;37.40;100686.47;4995181;28;20041;-76
2024/04/06 09:48:41;;;;;;;4.22;1.38;;;;;;;20.04;37.17;100687.19;4995373;28;20089;-78
2024/04/06 09:51:09;;;;;;;2.58;1.17;;;;;;;20.11;36.92;100688.09;4970265;28;20097;-77
2024/04/06 09:53:36;;;;;;;2.08;1.08;;;;;;;20.16;36.47;100680.88;4987549;28;20050;-77
2024/04/06 09:56:05;;;;;;;2.40;1.20;;;;;;;20.25;36.85;100673.25;4981116;28;20037;-76
2024/04/06 09:58:33;;;;;;;2.53;1.10;;;;;;;20.31;36.71;100670.50;4982856;28;20089;-77
2024/04/06 10:01:10;;;;;;;3.55;0.93;;;;;;;20.42;34.85;100669.09;4967227;28;20089;-76
2024/04/06 10:03:37;;;;;;;2.97;1.15;;;;;;;20.46;35.84;100652.84;4951315;28;20090;-76
2024/04/06 10:06:11;;;;;;;2.72;1.10;;;;;;;20.56;34.00;100651.44;4955084;28;20417;-77
2024/04/06 10:08:47;;;;;;;3.40;1.38;;;;;;;20.61;34.13;100665.59;4950597;28;20526;-77
2024/04/06 10:11:17;;;;;;;1.58;0.85;;;;;;;20.66;34.69;100659.44;4962229;28;20051;-77
2024/04/06 10:13:53;;;;;;;2.95;1.27;;;;;;;20.69;33.57;100640.44;4965576;28;20337;-77
2024/04/06 10:16:23;;;;;;;2.33;1.02;;;;;;;20.71;34.35;100641.06;4975457;28;20046;-77
2024/04/06 10:18:49;;;;;;;3.08;1.10;;;;;;;20.72;34.67;100645.56;4955970;28;20051;-77
2024/04/06 10:21:17;;;;;;;2.92;1.10;;;;;;;20.74;34.52;100646.22;4968825;28;20521;-77
2024/04/06 10:23:46;;;;;;;2.95;1.30;;;;;;;20.78;34.47;100632.75;4969009;28;20062;-77
2024/04/06 10:26:15;;;;;;;2.35;1.13;;;;;;;20.77;34.51;100640.25;4976336;28;20536;-77
2024/04/06 10:28:42;;;;;;;2.55;1.10;;;;;;;20.80;34.21;100643.66;4974733;28;20073;-76
2024/04/06 10:31:09;;;;;;;3.00;1.13;;;;;;;20.82;34.34;100630.44;4971164;28;20046;-77
2024/04/06 10:33:38;;;;;;;1.65;1.05;;;;;;;20.86;33.88;100631.75;4955844;28;20043;-76
2024/04/06 10:36:09;;;;;;;2.38;1.30;;;;;;;20.89;33.31;100632.16;4973266;28;20034;-77
2024/04/06 10:38:35;;;;;;;3.25;1.20;;;;;;;20.90;33.90;100616.34;4965507;28;20041;-77
2024/04/06 10:41:02;;;;;;;2.40;1.20;;;;;;;20.95;34.03;100627.69;4980091;28;21721;-77
2024/04/06 10:43:28;;;;;;;1.55;0.90;;;;;;;21.00;33.85;100614.88;4956923;28;20042;-77
2024/04/06 10:45:54;;;;;;;1.75;1.00;;;;;;;21.06;33.67;100619.59;4975478;28;20632;-77
2024/04/06 10:48:20;;;;;;;1.40;0.90;;;;;;;21.12;33.93;100618.75;4969883;28;20056;-78
2024/04/06 10:50:49;;;;;;;2.22;1.10;;;;;;;21.22;33.79;100612.81;4980610;28;20085;-77
2024/04/06 10:53:16;;;;;;;4.18;1.33;;;;;;;21.25;33.42;100620.75;4986369;28;20082;-79
2024/04/06 10:55:43;;;;;;;3.08;1.10;;;;;;;21.33;33.49;100626.16;4963958;28;20049;-78
2024/04/06 10:58:09;;;;;;;1.67;1.00;;;;;;;21.39;32.97;100621.66;4967061;28;20039;-79
2024/04/06 11:00:40;;;;;;;2.35;1.10;;;;;;;21.47;32.39;100611.16;4974064;28;20050;-78
2024/04/06 11:03:07;;;;;;;2.72;1.33;;;;;;;21.51;33.25;100606.06;4985877;28;20667;-79
2024/04/06 11:05:35;;;;;;;1.65;1.00;;;;;;;21.56;33.01;100606.25;4973834;28;20051;-79
2024/04/06 11:08:04;;;;;;;1.63;1.10;;;;;;;21.63;32.51;100603.47;4990978;28;20123;-77
2024/04/06 11:10:31;;;;;;;1.75;1.10;;;;;;;21.67;32.68;100605.63;4993219;28;20315;-78
2024/04/06 11:12:58;;;;;;;1.83;1.02;;;;;;;21.70;32.61;100602.41;4993201;28;20061;-78
2024/04/06 11:15:26;;;;;;;2.00;1.20;;;;;;;21.77;32.39;100607.97;4988451;28;20041;-75
2024/04/06 11:17:53;;;;;;;1.63;1.00;;;;;;;21.78;32.56;100596.63;5002770;28;20034;-70
2024/04/06 11:20:20;;;;;;;2.88;1.23;;;;;;;21.82;32.45;100602.63;5005030;28;20052;-67
2024/04/06 11:22:46;;;;;;;2.33;1.15;;;;;;;21.86;32.48;100592.75;4993401;28;20046;-69